Time;durP1;ratioP1;P1;durP2;ratioP2;P2;SDS_P1;SDS_P2;PMS_P1;PMS_P2;Temp;Humidity;BMP_temperature;BMP_pressure;BME280_temperature;BME280_humidity;BME280_pressure;Samples;Min_cycle;Max_cycle;Signal;HPM_P1;HPM_P2
2021/12/18 05:01:25;;;;;;;21.75;4.13;;;6.20;99.90;;;;;;5593568;23;20601;-79
2021/12/18 05:03:50;;;;;;;22.70;4.43;;;6.20;99.90;;;;;;5018708;28;20073;-80
2021/12/18 05:06:17;;;;;;;19.60;3.92;;;6.20;99.90;;;;;;5018924;28;20041;-80
2021/12/18 05:08:42;;;;;;;28.48;4.55;;;6.20;99.90;;;;;;5018954;28;20084;-80
2021/12/18 05:11:08;;;;;;;23.33;4.05;;;6.30;99.90;;;;;;5018386;28;20403;-80
2021/12/18 05:13:34;;;;;;;38.47;4.72;;;6.30;99.90;;;;;;5018206;28;20037;-80
2021/12/18 05:15:59;;;;;;;27.20;4.75;;;6.30;99.90;;;;;;5018110;28;20065;-79
2021/12/18 05:18:25;;;;;;;31.50;3.90;;;6.30;99.90;;;;;;5018285;28;20092;-80
2021/12/18 05:20:50;;;;;;;25.70;3.97;;;6.30;99.90;;;;;;5018105;28;20571;-80
2021/12/18 05:23:16;;;;;;;33.25;4.40;;;6.30;99.90;;;;;;5018170;28;20443;-80
2021/12/18 05:25:42;;;;;;;26.48;4.22;;;6.30;99.90;;;;;;5018172;28;20038;-79
2021/12/18 05:28:07;;;;;;;19.42;4.13;;;6.30;99.90;;;;;;5018508;28;20092;-80
2021/12/18 05:30:33;;;;;;;32.63;5.05;;;6.30;99.90;;;;;;5002104;28;20538;-80
2021/12/18 05:33:01;;;;;;;39.67;5.68;;;6.40;99.90;;;;;;5018028;28;20046;-78
2021/12/18 05:35:26;;;;;;;34.33;5.00;;;6.40;99.90;;;;;;5018146;28;20464;-80
2021/12/18 05:37:54;;;;;;;47.67;5.97;;;6.30;99.90;;;;;;5018745;28;20044;-79
2021/12/18 05:40:23;;;;;;;41.30;6.03;;;6.30;99.90;;;;;;5017976;28;20042;-79
2021/12/18 05:42:50;;;;;;;32.08;5.50;;;6.30;99.90;;;;;;5018069;28;20092;-79
2021/12/18 05:45:16;;;;;;;37.75;5.93;;;6.40;99.90;;;;;;5018281;28;20061;-80
2021/12/18 05:47:43;;;;;;;45.90;6.07;;;6.40;99.90;;;;;;5016197;28;20072;-79
2021/12/18 05:50:11;;;;;;;49.53;6.65;;;6.40;99.90;;;;;;5014875;28;20121;-79
2021/12/18 05:52:37;;;;;;;41.90;6.57;;;6.30;99.90;;;;;;5014474;28;20056;-80
2021/12/18 05:55:03;;;;;;;40.17;6.55;;;6.30;99.90;;;;;;4998231;28;20038;-80
2021/12/18 05:57:29;;;;;;;32.33;5.88;;;6.40;99.90;;;;;;5016200;28;20092;-80
2021/12/18 05:59:55;;;;;;;44.20;6.82;;;6.40;99.90;;;;;;5014854;28;20042;-79
2021/12/18 06:02:20;;;;;;;41.03;6.47;;;6.40;99.90;;;;;;5014902;28;20048;-80
2021/12/18 06:04:46;;;;;;;48.05;7.47;;;6.40;99.90;;;;;;5014555;28;20046;-79
2021/12/18 06:07:37;;;;;;;45.30;7.20;;;6.40;99.90;;;;;;5014703;28;20092;-80
2021/12/18 06:10:03;;;;;;;44.15;7.22;;;6.40;99.90;;;;;;5015285;28;20120;-79
2021/12/18 06:12:28;;;;;;;51.10;7.53;;;6.40;99.90;;;;;;5014221;28;20559;-79
2021/12/18 06:14:54;;;;;;;59.08;8.55;;;6.40;99.90;;;;;;5014994;28;20033;-80
2021/12/18 06:17:20;;;;;;;56.58;9.15;;;6.40;99.90;;;;;;5015057;28;20514;-79
2021/12/18 06:19:46;;;;;;;61.53;8.27;;;6.40;99.90;;;;;;5015081;28;20076;-80
2021/12/18 06:22:12;;;;;;;56.65;7.88;;;6.40;99.90;;;;;;5014458;28;20100;-80
2021/12/18 06:24:38;;;;;;;50.72;8.32;;;6.50;99.90;;;;;;5014395;28;20069;-81
2021/12/18 06:27:03;;;;;;;58.60;8.25;;;6.50;99.90;;;;;;5015140;28;20049;-81
2021/12/18 06:29:31;;;;;;;48.83;7.60;;;6.50;99.90;;;;;;5014173;28;20052;-80
2021/12/18 06:31:57;;;;;;;51.38;6.80;;;6.50;99.90;;;;;;5014792;28;20042;-80
2021/12/18 06:34:23;;;;;;;58.22;7.75;;;6.50;99.90;;;;;;5013981;28;20042;-80
2021/12/18 06:36:48;;;;;;;58.42;6.95;;;6.50;99.90;;;;;;5015474;28;20038;-76
2021/12/18 06:39:14;;;;;;;59.20;7.40;;;6.50;99.90;;;;;;5014450;28;20522;-77
2021/12/18 06:41:39;;;;;;;51.10;7.43;;;6.50;99.90;;;;;;5014008;28;20042;-77
2021/12/18 06:44:05;;;;;;;43.22;6.50;;;6.50;99.90;;;;;;5014198;28;20137;-78
2021/12/18 06:46:32;;;;;;;42.05;6.25;;;6.50;99.90;;;;;;5012305;28;20538;-86
2021/12/18 06:48:58;;;;;;;53.83;7.45;;;6.50;99.90;;;;;;5013237;28;20419;-80
2021/12/18 06:51:23;;;;;;;74.18;8.10;;;6.50;99.90;;;;;;5012904;28;20251;-81
2021/12/18 06:53:49;;;;;;;60.38;7.97;;;6.50;99.90;;;;;;4996374;28;20042;-80
2021/12/18 06:56:15;;;;;;;64.70;7.65;;;6.50;99.90;;;;;;5012178;28;20042;-81
2021/12/18 06:58:40;;;;;;;62.50;7.93;;;6.50;99.90;;;;;;5012509;28;20034;-81
2021/12/18 07:01:06;;;;;;;49.70;7.15;;;6.50;99.90;;;;;;5012857;28;20074;-81
2021/12/18 07:03:33;;;;;;;61.08;7.28;;;6.50;99.90;;;;;;5012458;28;20407;-82
2021/12/18 07:05:59;;;;;;;50.53;6.80;;;6.50;99.90;;;;;;5012438;28;20050;-82
2021/12/18 07:08:24;;;;;;;62.85;8.07;;;6.50;99.90;;;;;;5012982;28;20042;-81
2021/12/18 07:10:50;;;;;;;68.78;8.90;;;6.50;99.90;;;;;;5012383;28;20059;-84
2021/12/18 07:13:15;;;;;;;55.95;8.00;;;6.50;99.90;;;;;;5012578;28;20116;-82
2021/12/18 07:15:42;;;;;;;62.55;7.75;;;6.50;99.90;;;;;;5012203;28;20038;-81
2021/12/18 07:18:08;;;;;;;74.70;8.95;;;6.50;99.90;;;;;;5013634;28;20050;-82
2021/12/18 07:20:34;;;;;;;77.75;10.13;;;6.50;99.90;;;;;;5013647;28;20034;-82
2021/12/18 07:23:00;;;;;;;75.38;9.75;;;6.50;99.90;;;;;;5013925;28;20072;-85
2021/12/18 07:25:27;;;;;;;60.72;9.63;;;6.50;99.90;;;;;;5014770;28;20038;-84
2021/12/18 07:27:53;;;;;;;77.78;10.75;;;6.50;99.90;;;;;;5012971;28;20085;-79
2021/12/18 07:30:19;;;;;;;65.70;10.23;;;6.50;99.90;;;;;;5013583;28;20077;-85
2021/12/18 07:32:45;;;;;;;104.15;11.00;;;6.60;99.90;;;;;;5013612;28;20057;-91
2021/12/18 07:35:11;;;;;;;75.55;9.50;;;6.60;99.90;;;;;;5014268;28;20042;-82
2021/12/18 07:37:37;;;;;;;92.65;10.65;;;6.60;99.90;;;;;;5014203;28;20476;-82
2021/12/18 07:40:05;;;;;;;96.32;12.50;;;6.60;99.90;;;;;;5012863;28;20117;-82
2021/12/18 07:42:31;;;;;;;72.68;11.48;;;6.60;99.90;;;;;;4996504;28;20487;-81
2021/12/18 07:44:57;;;;;;;72.25;10.88;;;6.60;99.90;;;;;;5013466;28;20042;-82
2021/12/18 07:47:23;;;;;;;82.50;11.27;;;6.70;99.90;;;;;;5012640;28;20056;-84
2021/12/18 07:49:48;;;;;;;78.65;12.00;;;6.60;99.90;;;;;;5013107;28;20042;-82
2021/12/18 07:52:14;;;;;;;80.47;11.65;;;6.60;99.90;;;;;;5012403;28;20049;-83
2021/12/18 07:54:40;;;;;;;92.82;12.77;;;6.70;99.90;;;;;;5012394;28;20456;-82
2021/12/18 07:57:06;;;;;;;86.97;12.50;;;6.70;99.90;;;;;;5012699;28;20046;-82
2021/12/18 07:59:32;;;;;;;70.72;10.52;;;6.70;99.90;;;;;;5012553;28;20040;-82
2021/12/18 08:01:57;;;;;;;80.93;21.92;;;6.70;99.90;;;;;;5012425;28;20052;-82
2021/12/18 08:04:23;;;;;;;56.33;10.88;;;6.80;99.90;;;;;;5012476;28;20049;-82
2021/12/18 08:06:48;;;;;;;58.08;10.65;;;6.80;99.90;;;;;;5012313;28;20045;-81
2021/12/18 08:09:14;;;;;;;62.30;11.00;;;6.80;99.90;;;;;;5012396;28;20050;-84
2021/12/18 08:11:40;;;;;;;57.95;10.15;;;6.80;99.90;;;;;;5013614;28;20033;-82
2021/12/18 08:14:05;;;;;;;56.97;9.60;;;6.80;99.90;;;;;;5012362;28;20120;-81
2021/12/18 08:16:31;;;;;;;58.33;9.45;;;6.80;99.90;;;;;;5012375;28;20443;-83
2021/12/18 08:18:57;;;;;;;50.33;8.90;;;6.90;99.90;;;;;;5012290;28;20033;-82
2021/12/18 08:21:22;;;;;;;47.03;9.23;;;6.90;99.90;;;;;;5012072;28;20073;-82
2021/12/18 08:23:48;;;;;;;53.25;9.65;;;6.90;99.90;;;;;;5012502;28;20042;-82
2021/12/18 08:26:13;;;;;;;56.00;10.45;;;6.90;99.90;;;;;;5013694;28;20488;-82
2021/12/18 08:28:39;;;;;;;53.30;9.52;;;6.90;99.90;;;;;;5012366;28;20053;-82
2021/12/18 08:31:04;;;;;;;48.38;9.20;;;6.90;99.90;;;;;;5013280;28;20041;-83
2021/12/18 08:33:30;;;;;;;48.67;9.13;;;6.90;99.90;;;;;;5012209;28;20514;-83
2021/12/18 08:35:56;;;;;;;42.55;8.75;;;7.00;99.90;;;;;;5011975;28;20080;-82
2021/12/18 08:38:22;;;;;;;44.47;8.68;;;7.00;99.90;;;;;;5012099;28;20131;-81
2021/12/18 08:40:49;;;;;;;50.58;8.50;;;7.00;99.90;;;;;;5013552;28;20038;-82
2021/12/18 08:43:15;;;;;;;60.33;12.60;;;7.00;99.90;;;;;;5013526;28;20038;-82
2021/12/18 08:45:41;;;;;;;63.83;13.63;;;7.00;99.90;;;;;;5013536;28;20494;-82
2021/12/18 08:48:06;;;;;;;57.25;13.18;;;7.00;99.90;;;;;;5013457;28;20069;-82
2021/12/18 08:50:32;;;;;;;56.40;12.80;;;7.00;99.90;;;;;;5013422;28;20049;-82
2021/12/18 08:52:58;;;;;;;47.80;10.13;;;7.10;99.90;;;;;;5012072;28;20119;-81
2021/12/18 08:55:23;;;;;;;37.03;9.35;;;7.10;99.90;;;;;;5011929;28;20038;-82
2021/12/18 08:57:50;;;;;;;43.17;9.25;;;7.10;99.90;;;;;;5011939;28;20128;-83
2021/12/18 09:00:20;;;;;;;43.05;9.68;;;7.20;99.90;;;;;;5011907;28;20030;-83
2021/12/18 09:02:48;;;;;;;54.13;11.98;;;7.20;99.90;;;;;;5011948;28;20049;-83
2021/12/18 09:05:16;;;;;;;51.17;9.30;;;7.20;99.90;;;;;;5012157;28;20155;-85
2021/12/18 09:07:42;;;;;;;39.67;10.27;;;7.30;99.90;;;;;;5011670;28;20054;-83
2021/12/18 09:10:09;;;;;;;42.72;9.43;;;7.30;99.90;;;;;;5013411;28;20041;-82
2021/12/18 09:12:34;;;;;;;44.75;8.88;;;7.30;99.90;;;;;;5011681;28;20053;-84
2021/12/18 09:15:01;;;;;;;51.15;10.80;;;7.30;99.90;;;;;;5013601;28;20034;-83
2021/12/18 09:17:28;;;;;;;42.13;9.52;;;7.30;99.90;;;;;;5014195;28;20423;-81
2021/12/18 09:19:54;;;;;;;41.33;9.73;;;7.40;99.90;;;;;;5008112;28;20042;-82
2021/12/18 09:22:20;;;;;;;33.53;9.63;;;7.40;99.90;;;;;;5028108;28;20078;-82
2021/12/18 09:24:46;;;;;;;43.22;9.25;;;7.40;99.90;;;;;;5017464;28;20407;-83
2021/12/18 09:27:12;;;;;;;37.03;9.13;;;7.40;99.90;;;;;;5000465;28;20041;-82
2021/12/18 09:29:37;;;;;;;35.47;9.48;;;7.40;99.90;;;;;;5015829;28;20068;-82
2021/12/18 09:32:03;;;;;;;38.55;9.00;;;7.50;99.90;;;;;;5016774;28;20049;-82
2021/12/18 09:34:30;;;;;;;28.90;8.23;;;7.50;99.90;;;;;;5015061;28;20368;-83
2021/12/18 09:36:56;;;;;;;28.95;7.53;;;7.50;99.90;;;;;;5015053;28;20042;-81
2021/12/18 09:39:23;;;;;;;32.72;8.80;;;7.60;99.90;;;;;;4998622;28;20041;-82
2021/12/18 09:41:50;;;;;;;39.20;8.68;;;7.60;99.90;;;;;;5014933;28;20038;-82
2021/12/18 09:44:30;;;;;;;29.80;8.50;;;7.70;99.90;;;;;;5015290;28;20077;-82
2021/12/18 09:46:56;;;;;;;32.45;8.93;;;7.70;99.90;;;;;;5015113;28;20165;-81
2021/12/18 09:49:22;;;;;;;30.08;7.63;;;7.70;99.90;;;;;;5015039;28;20049;-81
2021/12/18 09:51:49;;;;;;;37.67;8.90;;;7.70;99.90;;;;;;5014685;28;20037;-83
2021/12/18 09:54:15;;;;;;;30.20;9.25;;;7.70;99.90;;;;;;5014494;28;20121;-82
2021/12/18 09:56:42;;;;;;;36.65;11.00;;;7.80;99.90;;;;;;5014680;28;20041;-82
2021/12/18 09:59:08;;;;;;;31.10;9.23;;;7.80;99.90;;;;;;5014757;28;20046;-81
2021/12/18 10:01:35;;;;;;;27.95;9.00;;;7.90;99.90;;;;;;4998118;28;20577;-83
2021/12/18 10:04:02;;;;;;;29.90;8.70;;;7.90;99.90;;;;;;5014648;28;20045;-81
2021/12/18 10:06:41;;;;;;;28.60;8.48;;;7.90;99.90;;;;;;4998286;28;20052;-83
2021/12/18 10:09:11;;;;;;;31.35;9.88;;;7.90;99.90;;;;;;4998455;28;20033;-82
2021/12/18 10:11:45;;;;;;;33.13;10.60;;;8.00;99.90;;;;;;5014552;28;20361;-82
2021/12/18 10:14:11;;;;;;;27.30;9.07;;;8.00;99.90;;;;;;5014395;28;20483;-81
2021/12/18 10:16:49;;;;;;;33.13;9.45;;;8.00;99.90;;;;;;4998242;28;20522;-81
2021/12/18 10:19:33;;;;;;;25.10;8.90;;;8.10;99.90;;;;;;5014269;28;20518;-82
2021/12/18 10:22:04;;;;;;;31.00;9.18;;;8.10;99.90;;;;;;5014361;28;20048;-81
2021/12/18 10:24:32;;;;;;;30.95;9.52;;;8.10;99.90;;;;;;4998241;28;20037;-82
2021/12/18 10:26:58;;;;;;;34.22;10.02;;;8.10;99.90;;;;;;5014189;28;20041;-81
2021/12/18 10:29:36;;;;;;;27.73;9.10;;;8.10;99.90;;;;;;5013968;28;20088;-84
2021/12/18 10:32:17;;;;;;;29.23;9.15;;;8.10;99.90;;;;;;5014005;28;20049;-82
2021/12/18 10:34:50;;;;;;;29.33;9.02;;;8.10;99.90;;;;;;5013858;28;20133;-81
2021/12/18 10:37:22;;;;;;;25.63;8.25;;;8.10;99.90;;;;;;5014153;28;20438;-81
2021/12/18 10:39:50;;;;;;;21.23;7.57;;;8.20;99.90;;;;;;5013969;28;20096;-82
2021/12/18 10:42:35;;;;;;;17.25;7.10;;;8.20;99.90;;;;;;5013827;28;20042;-83
2021/12/18 10:45:12;;;;;;;19.30;8.90;;;8.20;99.90;;;;;;5014151;28;20148;-82
2021/12/18 10:48:08;;;;;;;12.50;5.75;;;8.20;99.90;;;;;;5014983;28;20042;-82
2021/12/18 10:50:51;;;;;;;11.15;5.07;;;8.20;99.90;;;;;;5014050;28;20046;-83
2021/12/18 10:53:29;;;;;;;9.70;4.40;;;8.20;99.90;;;;;;5013726;28;20488;-82
2021/12/18 10:55:58;;;;;;;7.57;3.20;;;8.30;99.90;;;;;;5013670;28;20037;-82
2021/12/18 10:58:32;;;;;;;5.30;2.78;;;8.20;99.90;;;;;;5015015;28;20042;-82
2021/12/18 11:01:00;;;;;;;3.42;1.70;;;8.30;99.90;;;;;;4997107;28;20056;-81
2021/12/18 11:03:28;;;;;;;6.50;2.00;;;8.30;99.90;;;;;;5014181;28;20084;-82
2021/12/18 11:06:23;;;;;;;4.68;1.70;;;8.30;99.90;;;;;;5013835;28;20380;-83
2021/12/18 11:08:54;;;;;;;5.20;2.38;;;8.30;99.90;;;;;;5000680;28;20074;-82
2021/12/18 11:14:11;;;;;;;8.02;3.80;;;8.30;99.90;;;;;;5013419;28;20064;-81
2021/12/18 11:16:39;;;;;;;11.13;4.10;;;8.30;99.90;;;;;;5013803;28;20365;-82
2021/12/18 11:19:16;;;;;;;15.82;4.90;;;8.30;99.90;;;;;;5013122;28;20072;-82
2021/12/18 11:21:44;;;;;;;12.65;5.40;;;8.30;99.90;;;;;;5014904;28;20055;-82
2021/12/18 11:24:12;;;;;;;10.95;5.00;;;8.30;99.90;;;;;;5013304;28;20388;-82
2021/12/18 11:26:44;;;;;;;11.63;4.20;;;8.30;99.90;;;;;;5013414;28;20495;-82
2021/12/18 11:29:14;;;;;;;9.13;4.07;;;8.30;99.90;;;;;;5013029;28;20048;-81
2021/12/18 11:31:41;;;;;;;9.75;3.45;;;8.20;99.90;;;;;;5012944;28;20042;-83
2021/12/18 11:34:07;;;;;;;9.85;4.18;;;8.20;99.90;;;;;;5012915;28;20038;-83
2021/12/18 11:36:37;;;;;;;9.15;3.97;;;8.20;99.90;;;;;;5012750;28;20046;-81
2021/12/18 11:39:02;;;;;;;12.05;5.18;;;8.20;99.90;;;;;;5012614;28;20041;-82
2021/12/18 11:41:28;;;;;;;11.30;4.80;;;8.30;99.90;;;;;;5012829;28;20447;-81
2021/12/18 11:43:54;;;;;;;10.25;4.40;;;8.30;99.90;;;;;;5012961;28;20050;-83
2021/12/18 11:46:32;;;;;;;12.85;5.20;;;8.30;99.90;;;;;;5012299;28;20136;-83
2021/12/18 11:49:00;;;;;;;8.98;4.25;;;8.30;99.90;;;;;;5012765;28;20049;-83
2021/12/18 11:51:27;;;;;;;7.93;3.78;;;8.30;99.90;;;;;;5012472;28;20052;-81
2021/12/18 11:53:52;;;;;;;10.57;3.60;;;8.30;99.90;;;;;;5012581;28;20053;-82
2021/12/18 11:56:18;;;;;;;9.65;3.90;;;8.30;99.90;;;;;;5012759;28;20396;-81
2021/12/18 11:58:47;;;;;;;12.65;4.03;;;8.40;99.90;;;;;;5012773;28;20448;-81
2021/12/18 12:01:18;;;;;;;10.57;4.90;;;8.40;99.90;;;;;;5012416;28;20077;-81
2021/12/18 12:03:56;;;;;;;9.60;3.92;;;8.40;99.90;;;;;;5012547;28;20046;-82
2021/12/18 12:06:32;;;;;;;9.88;3.80;;;8.40;99.90;;;;;;5012469;28;20506;-83
2021/12/18 12:09:34;;;;;;;10.88;4.68;;;8.40;99.90;;;;;;5012613;28;20057;-81
2021/12/18 12:12:01;;;;;;;11.73;4.53;;;8.40;99.90;;;;;;4996398;28;20037;-83
2021/12/18 12:14:28;;;;;;;14.35;5.65;;;8.40;99.90;;;;;;5012141;28;20500;-81
2021/12/18 12:17:02;;;;;;;12.63;5.22;;;8.40;99.90;;;;;;5013742;28;20046;-82
2021/12/18 12:19:34;;;;;;;10.93;4.68;;;8.40;99.90;;;;;;4995799;28;20061;-82
2021/12/18 12:22:01;;;;;;;11.88;5.47;;;8.40;99.90;;;;;;5012246;28;20065;-82
2021/12/18 12:24:57;;;;;;;14.73;5.25;;;8.40;99.90;;;;;;5012556;28;20044;-84
2021/12/18 12:27:32;;;;;;;10.88;5.50;;;8.40;99.90;;;;;;5012221;28;20462;-84
2021/12/18 12:30:00;;;;;;;14.88;5.25;;;8.40;99.90;;;;;;5012132;28;20487;-82
2021/12/18 12:32:28;;;;;;;13.02;5.47;;;8.50;99.90;;;;;;5012156;28;20077;-82
2021/12/18 12:35:13;;;;;;;11.13;4.68;;;8.50;99.90;;;;;;5011662;28;20038;-84
2021/12/18 12:37:43;;;;;;;12.05;4.90;;;8.50;99.90;;;;;;5011640;28;20056;-82
2021/12/18 12:40:27;;;;;;;12.45;5.13;;;8.50;99.90;;;;;;4995874;28;20503;-82
2021/12/18 12:43:18;;;;;;;16.85;5.57;;;8.50;99.90;;;;;;5012209;28;20073;-82
2021/12/18 12:45:47;;;;;;;13.00;4.90;;;8.50;99.90;;;;;;4996018;28;20128;-83
2021/12/18 12:48:13;;;;;;;11.98;5.18;;;8.50;99.90;;;;;;5011995;28;20096;-82
2021/12/18 12:50:39;;;;;;;15.07;5.30;;;8.60;99.90;;;;;;5012116;28;20041;-83
2021/12/18 12:53:08;;;;;;;14.40;6.07;;;8.60;99.90;;;;;;5011707;28;20054;-82
2021/12/18 12:55:43;;;;;;;12.88;5.38;;;8.60;99.90;;;;;;5011832;28;20056;-81
2021/12/18 12:58:15;;;;;;;;;;;8.60;99.90;;;;;;5014945;28;20073;-81
2021/12/18 13:00:45;;;;;;;16.27;5.82;;;8.60;99.90;;;;;;5015283;28;19921;-81
2021/12/18 13:03:21;;;;;;;15.90;5.63;;;8.60;99.90;;;;;;5015456;28;20073;-83
2021/12/18 13:05:49;;;;;;;16.25;5.45;;;8.60;99.90;;;;;;5015710;28;20458;-83
2021/12/18 13:08:16;;;;;;;14.88;5.57;;;8.60;99.90;;;;;;5015752;28;20069;-82
2021/12/18 13:10:42;;;;;;;10.15;4.53;;;8.60;99.90;;;;;;5015092;28;20046;-82
2021/12/18 13:13:13;;;;;;;12.10;4.60;;;8.50;99.90;;;;;;5015201;28;20101;-82
2021/12/18 13:15:54;;;;;;;10.98;4.47;;;8.60;99.90;;;;;;5015283;28;20042;-83
2021/12/18 13:18:22;;;;;;;7.20;3.75;;;8.60;99.90;;;;;;5015478;28;20050;-83
2021/12/18 13:20:55;;;;;;;7.50;3.83;;;8.60;99.90;;;;;;5015439;28;20074;-82
2021/12/18 13:23:22;;;;;;;10.23;3.90;;;8.60;99.90;;;;;;5015120;28;20050;-82
2021/12/18 13:25:50;;;;;;;12.80;5.07;;;8.60;99.90;;;;;;5014982;28;20137;-81
2021/12/18 13:28:16;;;;;;;12.50;7.18;;;8.60;99.90;;;;;;5020417;28;20472;-82
2021/12/18 13:30:42;;;;;;;19.38;8.40;;;8.60;99.90;;;;;;5017382;28;20069;-82
2021/12/18 13:33:08;;;;;;;14.55;5.90;;;8.60;99.90;;;;;;5026811;28;20038;-82
2021/12/18 13:35:37;;;;;;;12.55;4.88;;;8.60;99.90;;;;;;5034645;28;20046;-82
2021/12/18 13:38:09;;;;;;;13.50;5.47;;;8.60;99.90;;;;;;5018975;28;20161;-80
2021/12/18 13:40:37;;;;;;;13.73;5.40;;;8.60;99.90;;;;;;5018086;28;20091;-79
2021/12/18 13:43:23;;;;;;;17.80;9.90;;;8.60;99.90;;;;;;5015499;28;20042;-82
2021/12/18 13:45:58;;;;;;;10.98;5.53;;;8.60;99.90;;;;;;4998903;28;20133;-82
2021/12/18 13:48:27;;;;;;;22.15;11.82;;;8.60;99.90;;;;;;5015404;28;20049;-82
2021/12/18 13:50:55;;;;;;;12.63;5.85;;;8.60;99.90;;;;;;5014817;28;20482;-81
2021/12/18 13:53:21;;;;;;;20.20;6.95;;;8.60;99.90;;;;;;5014569;28;20057;-82
2021/12/18 13:55:51;;;;;;;12.73;5.40;;;8.60;99.90;;;;;;4998351;28;20041;-80
2021/12/18 13:58:24;;;;;;;14.57;5.20;;;8.60;99.90;;;;;;5014821;28;20120;-83
2021/12/18 14:01:10;;;;;;;14.40;5.82;;;8.60;99.90;;;;;;5014552;28;20056;-83
2021/12/18 14:03:51;;;;;;;14.80;6.60;;;8.60;99.90;;;;;;5014409;28;20042;-81
2021/12/18 14:06:26;;;;;;;17.95;7.28;;;8.60;99.90;;;;;;5014309;28;20049;-81
2021/12/18 14:08:58;;;;;;;14.13;5.10;;;8.60;99.90;;;;;;5013751;28;20049;-82
2021/12/18 14:11:30;;;;;;;19.63;5.85;;;8.60;99.90;;;;;;4998540;28;20124;-81
2021/12/18 14:14:03;;;;;;;16.95;5.82;;;8.60;99.90;;;;;;4998510;28;20050;-82
2021/12/18 14:16:30;;;;;;;13.70;6.03;;;8.60;99.90;;;;;;4997695;28;20041;-83
2021/12/18 14:19:02;;;;;;;12.23;5.63;;;8.50;99.90;;;;;;5014043;28;20454;-82
2021/12/18 14:21:43;;;;;;;15.15;5.72;;;8.50;99.90;;;;;;4997911;28;20403;-83
2021/12/18 14:24:11;;;;;;;14.50;6.10;;;8.50;99.90;;;;;;5014411;28;20045;-82
2021/12/18 14:26:37;;;;;;;13.13;5.75;;;8.50;99.90;;;;;;5014347;28;20042;-83
2021/12/18 14:29:17;;;;;;;16.48;8.15;;;8.40;99.90;;;;;;5015019;28;20499;-82
2021/12/18 14:31:46;;;;;;;18.67;8.45;;;8.50;99.90;;;;;;5014004;28;20061;-82
2021/12/18 14:34:45;;;;;;;18.27;11.63;;;8.40;99.90;;;;;;5014125;28;20052;-82
2021/12/18 14:37:12;;;;;;;14.63;6.93;;;8.40;99.90;;;;;;4993171;28;20050;-82
2021/12/18 14:39:42;;;;;;;22.83;9.90;;;8.40;99.90;;;;;;5013981;28;20073;-81
2021/12/18 14:42:34;;;;;;;14.75;7.75;;;8.40;99.90;;;;;;5013934;28;20101;-81
2021/12/18 14:45:21;;;;;;;15.27;6.65;;;8.40;99.90;;;;;;5014131;28;20173;-83
2021/12/18 14:47:49;;;;;;;17.30;6.50;;;8.30;99.90;;;;;;5014045;28;20048;-83
2021/12/18 14:50:35;;;;;;;16.85;8.50;;;8.30;99.90;;;;;;5014088;28;20050;-82
2021/12/18 14:53:12;;;;;;;18.95;9.90;;;8.30;99.90;;;;;;5013631;28;20049;-83
2021/12/18 14:55:49;;;;;;;15.10;7.90;;;8.30;99.90;;;;;;5013973;28;20038;-82
2021/12/18 14:58:20;;;;;;;16.52;7.80;;;8.30;99.90;;;;;;5013765;28;20052;-81
2021/12/18 15:00:51;;;;;;;16.38;7.45;;;8.30;99.90;;;;;;5013506;28;20038;-82
2021/12/18 15:03:22;;;;;;;17.15;7.85;;;8.30;99.90;;;;;;4997391;28;20080;-82
2021/12/18 15:05:53;;;;;;;13.70;7.18;;;8.20;99.90;;;;;;5013949;28;20404;-82
2021/12/18 15:08:34;;;;;;;15.18;6.45;;;8.20;99.90;;;;;;4997146;28;20042;-83
2021/12/18 15:11:14;;;;;;;16.00;7.63;;;8.20;99.90;;;;;;5014993;28;20041;-82
2021/12/18 15:13:44;;;;;;;20.23;11.00;;;8.20;99.90;;;;;;5014127;28;20068;-83
2021/12/18 15:16:25;;;;;;;25.02;13.45;;;8.20;99.90;;;;;;5013369;28;20041;-83
2021/12/18 15:18:50;;;;;;;18.98;9.80;;;8.20;99.90;;;;;;5013595;28;20042;-81
2021/12/18 15:21:17;;;;;;;16.08;7.22;;;8.10;99.90;;;;;;4996435;28;20036;-82
2021/12/18 15:23:44;;;;;;;10.30;5.90;;;8.10;99.90;;;;;;5013341;28;20121;-82
2021/12/18 15:26:10;;;;;;;11.70;6.40;;;8.10;99.90;;;;;;5013147;28;20392;-82
2021/12/18 15:28:36;;;;;;;8.23;4.70;;;8.10;99.90;;;;;;5013100;28;20499;-82
2021/12/18 15:31:02;;;;;;;15.32;5.93;;;8.10;99.90;;;;;;5013206;28;20052;-80
2021/12/18 15:33:28;;;;;;;11.40;5.30;;;8.10;99.90;;;;;;5012949;28;20045;-84
2021/12/18 15:35:54;;;;;;;23.40;12.23;;;8.10;99.90;;;;;;5014488;28;20168;-82
2021/12/18 15:38:20;;;;;;;12.75;6.72;;;8.00;99.90;;;;;;5013114;28;20081;-83
2021/12/18 15:40:47;;;;;;;14.38;6.10;;;8.00;99.90;;;;;;5014280;28;20046;-83
2021/12/18 15:43:13;;;;;;;10.80;5.35;;;8.00;99.90;;;;;;5012730;28;20038;-85
2021/12/18 15:45:39;;;;;;;12.40;6.05;;;8.00;99.90;;;;;;5012571;28;20042;-83
2021/12/18 15:48:04;;;;;;;16.00;6.32;;;8.00;99.90;;;;;;5012656;28;20054;-84
2021/12/18 15:50:30;;;;;;;15.13;5.85;;;8.00;99.90;;;;;;5013093;28;20042;-81
2021/12/18 15:52:56;;;;;;;10.90;6.00;;;8.00;99.90;;;;;;5012885;28;20084;-82
2021/12/18 15:55:22;;;;;;;14.35;6.20;;;8.00;99.90;;;;;;4995996;28;20096;-82
2021/12/18 15:57:50;;;;;;;13.38;5.95;;;7.90;99.90;;;;;;4995930;28;20042;-82
2021/12/18 16:00:19;;;;;;;14.27;6.10;;;7.90;99.90;;;;;;5014224;28;20041;-83
2021/12/18 16:02:49;;;;;;;12.88;6.70;;;7.90;99.90;;;;;;5012247;28;20045;-82
2021/12/18 16:05:17;;;;;;;13.40;7.05;;;7.90;99.90;;;;;;5012080;28;20091;-82
2021/12/18 16:07:43;;;;;;;17.60;6.80;;;7.90;99.90;;;;;;5012342;28;20046;-81
2021/12/18 16:10:10;;;;;;;14.00;7.15;;;7.90;99.90;;;;;;5012420;28;20408;-82
2021/12/18 16:12:36;;;;;;;16.77;7.10;;;7.90;99.90;;;;;;5013243;28;20100;-82
2021/12/18 16:15:03;;;;;;;14.75;7.30;;;7.80;99.90;;;;;;5012038;28;20061;-83
2021/12/18 16:17:29;;;;;;;16.30;7.90;;;7.90;99.90;;;;;;5012127;28;20038;-80
2021/12/18 16:19:54;;;;;;;19.58;9.05;;;7.90;99.90;;;;;;5012069;28;20050;-82
2021/12/18 16:22:20;;;;;;;17.42;9.38;;;7.80;99.90;;;;;;5012008;28;20038;-84
2021/12/18 16:24:45;;;;;;;17.83;8.90;;;7.80;99.90;;;;;;5011940;28;20148;-82
2021/12/18 16:27:11;;;;;;;20.67;9.48;;;7.80;99.90;;;;;;5011946;28;20117;-82
2021/12/18 16:29:37;;;;;;;19.65;9.77;;;7.80;99.90;;;;;;5011683;28;20049;-82
2021/12/18 16:32:02;;;;;;;20.20;9.75;;;7.80;99.90;;;;;;5011644;28;20046;-83
2021/12/18 16:34:28;;;;;;;23.15;9.80;;;7.80;99.90;;;;;;5012098;28;20048;-82
2021/12/18 16:36:54;;;;;;;23.45;10.38;;;7.80;99.90;;;;;;5011753;28;20049;-82
2021/12/18 16:39:21;;;;;;;23.13;10.63;;;7.80;99.90;;;;;;5011697;28;20033;-83
2021/12/18 16:41:46;;;;;;;20.83;9.77;;;7.80;99.90;;;;;;5011747;28;20038;-82
2021/12/18 16:44:12;;;;;;;23.77;10.75;;;7.80;99.90;;;;;;5011871;28;20333;-83
2021/12/18 16:46:38;;;;;;;19.70;9.65;;;7.80;99.90;;;;;;5012805;28;20100;-83
2021/12/18 16:49:04;;;;;;;24.35;9.95;;;7.80;99.90;;;;;;5011702;28;20121;-85
2021/12/18 16:51:30;;;;;;;17.05;7.43;;;7.80;99.90;;;;;;5011509;28;20050;-83
2021/12/18 16:53:56;;;;;;;13.02;5.63;;;7.70;99.90;;;;;;5012073;28;20064;-82
2021/12/18 16:56:22;;;;;;;13.18;5.30;;;7.70;99.90;;;;;;4995073;28;20038;-83
2021/12/18 16:58:50;;;;;;;10.07;3.78;;;7.70;99.90;;;;;;5011596;28;20492;-81
2021/12/18 17:01:16;;;;;;;7.80;3.60;;;7.70;99.90;;;;;;5011662;28;20041;-80
2021/12/18 17:03:43;;;;;;;10.85;4.15;;;7.60;99.90;;;;;;5011606;28;20064;-82
2021/12/18 17:06:09;;;;;;;8.60;3.97;;;7.60;99.90;;;;;;5011809;28;20053;-82
2021/12/18 17:08:35;;;;;;;8.98;4.13;;;7.60;99.90;;;;;;5011730;28;20367;-82
2021/12/18 17:11:01;;;;;;;10.23;4.80;;;7.50;99.90;;;;;;5013154;28;20121;-81
2021/12/18 17:13:26;;;;;;;12.02;4.65;;;7.60;99.90;;;;;;5011307;28;20100;-83
2021/12/18 17:15:52;;;;;;;12.20;4.68;;;7.50;99.90;;;;;;5011397;28;20045;-82
2021/12/18 17:18:18;;;;;;;16.08;5.88;;;7.50;99.90;;;;;;5011299;28;20492;-82
2021/12/18 17:20:44;;;;;;;16.38;6.38;;;7.50;99.90;;;;;;5011171;28;20153;-82
2021/12/18 17:23:09;;;;;;;19.27;6.97;;;7.50;99.90;;;;;;4995188;28;20114;-82
2021/12/18 17:25:35;;;;;;;20.20;7.40;;;7.50;99.90;;;;;;5011367;28;20038;-81
2021/12/18 17:28:02;;;;;;;29.27;8.10;;;7.50;99.90;;;;;;5011324;28;20049;-82
2021/12/18 17:30:28;;;;;;;27.42;8.60;;;7.50;99.90;;;;;;5011724;28;20046;-82
2021/12/18 17:32:55;;;;;;;31.42;9.43;;;7.50;99.90;;;;;;5011559;28;20041;-82
2021/12/18 17:35:21;;;;;;;34.90;10.00;;;7.50;99.90;;;;;;5011198;28;20038;-81
2021/12/18 17:37:47;;;;;;;30.75;9.77;;;7.50;99.90;;;;;;4995958;28;20042;-83
2021/12/18 17:40:16;;;;;;;43.20;11.27;;;7.40;99.90;;;;;;5011849;28;20042;-82
2021/12/18 17:42:42;;;;;;;42.70;11.18;;;7.50;99.90;;;;;;5011235;28;20073;-82
2021/12/18 17:45:08;;;;;;;39.53;9.50;;;7.40;99.90;;;;;;5013385;28;20139;-81
2021/12/18 17:47:34;;;;;;;42.03;10.05;;;7.40;99.90;;;;;;5015019;28;20054;-82
2021/12/18 17:50:01;;;;;;;35.03;8.93;;;7.30;99.90;;;;;;5015199;28;20141;-82
2021/12/18 17:52:27;;;;;;;37.38;9.05;;;7.30;99.90;;;;;;5015031;28;20045;-82
2021/12/18 17:54:53;;;;;;;34.42;8.73;;;7.20;99.90;;;;;;5015159;28;20045;-80
2021/12/18 17:57:19;;;;;;;33.75;9.00;;;7.20;99.90;;;;;;5014820;28;20057;-81